»·PEaware :: N3539W KDLO-KEMT

N3539W :: KDLO-KEMT

FLIGHT INFORMATION

Flight Status: Arrived
Operator: Privately registered:
United States
More flights under this callsign
Pilot: Joerg P. (23850)
Aircraft: PIPER PA-32 SARATOGA
(PA32)
More flights by this aircraft type
Origin: KDLO Delano Mun
United States
Destination: KEMT El Monte
United States
More flights between these airports :: More routes between these airports
Route: LHS VNY
File this flight plan on PilotEdge
Remarks:
Altitude:
(Current/Filed)
7,500ft
Speed:
(Current/Filed)
130kts
Departed: 19-Jul-20 03:42 PM
Arrived: 19-Jul-20 04:37 PM
Distance/Time
Traveled:
116nm/0:55
Distance/Time
To Go:
Arrived

Flight Plot

Page will automatically refresh every two minutes.

Flight plan parsing failed; only flown route is shown


Map Options




Map Legend


Flown Route
Filed Route
Departure Airport
Arrival Airport
Navaid (VOR, NDB)
Fix

Horizontal Profiles

Position Reports

Time Latitude Longitude Heading Altitude Ground
Speed
19-Jul-20 15:38 35.745592 -119.238804 0 316ft 0kts
19-Jul-20 15:39 35.745542 -119.238529 125 316ft 5kts
19-Jul-20 15:40 35.742418 -119.236735 154 316ft 19kts
19-Jul-20 15:40 35.738691 -119.234275 114 316ft 2kts
19-Jul-20 15:42 35.745265 -119.236461 337 364ft 94kts
19-Jul-20 15:43 35.733433 -119.251956 145 1048ft 127kts
19-Jul-20 15:43 35.713973 -119.225956 123 1610ft 127kts
19-Jul-20 15:44 35.691126 -119.194470 140 2356ft 119kts
19-Jul-20 15:45 35.662579 -119.171908 146 2997ft 125kts
19-Jul-20 15:46 35.632612 -119.150651 151 3679ft 124kts
19-Jul-20 15:47 35.602558 -119.131077 146 4352ft 124kts
19-Jul-20 15:48 35.573880 -119.108216 143 5101ft 124kts
19-Jul-20 15:49 35.546171 -119.083531 149 5860ft 123kts
19-Jul-20 15:50 35.514311 -119.067089 163 6533ft 124kts
19-Jul-20 15:51 35.481629 -119.053536 152 7181ft 126kts
19-Jul-20 15:52 35.449985 -119.032668 156 7561ft 138kts
19-Jul-20 15:53 35.414044 -119.013723 156 7657ft 142kts
19-Jul-20 15:54 35.376971 -118.993383 158 7581ft 147kts
19-Jul-20 15:55 35.339780 -118.973933 160 7633ft 144kts
19-Jul-20 15:56 35.302823 -118.953615 156 7591ft 149kts
19-Jul-20 15:57 35.266774 -118.929717 151 7596ft 148kts
19-Jul-20 15:58 35.230280 -118.907404 157 7567ft 147kts
19-Jul-20 15:59 35.193765 -118.885312 151 7573ft 146kts
19-Jul-20 16:00 35.161082 -118.855423 153 7573ft 146kts
19-Jul-20 16:01 35.123796 -118.836002 161 7574ft 145kts
19-Jul-20 16:02 35.086351 -118.816949 158 7563ft 147kts
19-Jul-20 16:03 35.049238 -118.796511 157 7569ft 146kts
19-Jul-20 16:04 35.013319 -118.772949 150 7577ft 148kts
19-Jul-20 16:05 34.977265 -118.748922 154 7539ft 149kts
19-Jul-20 16:06 34.940202 -118.727590 158 7563ft 146kts
19-Jul-20 16:07 34.902890 -118.707167 160 7546ft 148kts
19-Jul-20 16:08 34.864694 -118.688509 158 7548ft 147kts
19-Jul-20 16:09 34.828338 -118.665082 152 7564ft 148kts
19-Jul-20 16:10 34.791748 -118.641438 156 7554ft 149kts
19-Jul-20 16:11 34.754678 -118.618974 156 7563ft 149kts
19-Jul-20 16:12 34.717055 -118.597238 160 7541ft 149kts
19-Jul-20 16:13 34.679229 -118.576489 174 7494ft 150kts
19-Jul-20 16:14 34.638496 -118.566708 169 7515ft 149kts
19-Jul-20 16:15 34.598151 -118.560376 176 7491ft 148kts
19-Jul-20 16:16 34.557373 -118.550375 171 7480ft 148kts
19-Jul-20 16:17 34.516973 -118.539718 174 7445ft 149kts
19-Jul-20 16:18 34.476171 -118.532345 180 7447ft 146kts
19-Jul-20 16:19 34.435675 -118.528618 179 7466ft 146kts
19-Jul-20 16:20 34.394988 -118.519852 172 7464ft 148kts
19-Jul-20 16:21 34.354914 -118.507893 177 7496ft 146kts
19-Jul-20 16:22 34.314356 -118.502479 184 7484ft 146kts
19-Jul-20 16:23 34.273831 -118.500995 177 7509ft 146kts
19-Jul-20 16:24 34.233351 -118.491638 173 7514ft 148kts
19-Jul-20 16:25 34.204863 -118.455318 109 7338ft 164kts
19-Jul-20 16:26 34.191489 -118.402399 107 6884ft 165kts
19-Jul-20 16:27 34.180514 -118.349280 100 6388ft 166kts
19-Jul-20 16:28 34.168124 -118.295905 113 5945ft 165kts
19-Jul-20 16:29 34.152019 -118.245351 110 5425ft 158kts
19-Jul-20 16:30 34.138623 -118.194795 110 4685ft 156kts
19-Jul-20 16:31 34.123696 -118.146381 112 4001ft 151kts
19-Jul-20 16:32 34.103148 -118.103506 133 3350ft 145kts
19-Jul-20 16:33 34.077334 -118.067250 112 2451ft 141kts
19-Jul-20 16:34 34.102268 -118.038085 13 1152ft 111kts
19-Jul-20 16:35 34.095905 -118.029090 209 584ft 89kts
19-Jul-20 16:36 34.083045 -118.036086 114 289ft 9kts
19-Jul-20 16:37 34.084318 -118.034515 39 292ft 10kts

Navigation Log

Ident Type
Flight plan parsing failed, navigation log unavailable